sensor_id;sensor_type;location;lat;lon;timestamp;P1;durP1;ratioP1;P2;durP2;ratioP2
47455;SDS011;33202;48.512;-2.780;2023-05-07T00:01:36;1.33;;;0.60;;
47455;SDS011;33202;48.512;-2.780;2023-05-07T00:04:02;1.15;;;0.80;;
47455;SDS011;33202;48.512;-2.780;2023-05-07T00:06:29;1.45;;;0.70;;
47455;SDS011;33202;48.512;-2.780;2023-05-07T00:08:56;1.42;;;0.70;;
47455;SDS011;33202;48.512;-2.780;2023-05-07T00:13:48;1.17;;;0.63;;
47455;SDS011;33202;48.512;-2.780;2023-05-07T00:16:14;1.35;;;0.65;;
47455;SDS011;33202;48.512;-2.780;2023-05-07T00:18:40;1.08;;;0.70;;
47455;SDS011;33202;48.512;-2.780;2023-05-07T00:21:06;1.55;;;0.70;;
47455;SDS011;33202;48.512;-2.780;2023-05-07T00:23:32;0.95;;;0.60;;
47455;SDS011;33202;48.512;-2.780;2023-05-07T00:25:58;1.33;;;0.80;;
47455;SDS011;33202;48.512;-2.780;2023-05-07T00:28:24;3.72;;;1.10;;
47455;SDS011;33202;48.512;-2.780;2023-05-07T00:30:50;1.45;;;0.85;;
47455;SDS011;33202;48.512;-2.780;2023-05-07T00:33:16;2.33;;;1.00;;
47455;SDS011;33202;48.512;-2.780;2023-05-07T00:35:43;1.40;;;0.80;;
47455;SDS011;33202;48.512;-2.780;2023-05-07T00:38:09;2.08;;;0.70;;
47455;SDS011;33202;48.512;-2.780;2023-05-07T00:40:35;1.35;;;0.77;;
47455;SDS011;33202;48.512;-2.780;2023-05-07T00:43:01;1.02;;;0.63;;
47455;SDS011;33202;48.512;-2.780;2023-05-07T00:45:27;1.10;;;0.63;;
47455;SDS011;33202;48.512;-2.780;2023-05-07T00:47:57;0.80;;;0.60;;
47455;SDS011;33202;48.512;-2.780;2023-05-07T00:50:23;1.92;;;0.82;;
47455;SDS011;33202;48.512;-2.780;2023-05-07T00:52:49;1.50;;;0.90;;
47455;SDS011;33202;48.512;-2.780;2023-05-07T00:55:15;2.58;;;0.90;;
47455;SDS011;33202;48.512;-2.780;2023-05-07T00:57:41;1.77;;;0.90;;
47455;SDS011;33202;48.512;-2.780;2023-05-07T01:00:08;1.83;;;0.88;;
47455;SDS011;33202;48.512;-2.780;2023-05-07T01:02:35;1.48;;;0.75;;
47455;SDS011;33202;48.512;-2.780;2023-05-07T01:05:01;1.25;;;0.75;;
47455;SDS011;33202;48.512;-2.780;2023-05-07T01:07:31;2.05;;;1.00;;
47455;SDS011;33202;48.512;-2.780;2023-05-07T01:09:58;1.30;;;1.00;;
47455;SDS011;33202;48.512;-2.780;2023-05-07T01:12:24;2.25;;;1.15;;
47455;SDS011;33202;48.512;-2.780;2023-05-07T01:14:50;1.40;;;1.00;;
47455;SDS011;33202;48.512;-2.780;2023-05-07T01:17:17;2.97;;;1.45;;
47455;SDS011;33202;48.512;-2.780;2023-05-07T01:19:43;3.93;;;2.00;;
47455;SDS011;33202;48.512;-2.780;2023-05-07T01:22:09;2.90;;;2.08;;
47455;SDS011;33202;48.512;-2.780;2023-05-07T01:24:40;5.47;;;1.95;;
47455;SDS011;33202;48.512;-2.780;2023-05-07T01:27:07;4.70;;;1.83;;
47455;SDS011;33202;48.512;-2.780;2023-05-07T01:29:33;3.05;;;1.60;;
47455;SDS011;33202;48.512;-2.780;2023-05-07T01:31:59;3.08;;;2.00;;
47455;SDS011;33202;48.512;-2.780;2023-05-07T01:34:27;3.97;;;2.00;;
47455;SDS011;33202;48.512;-2.780;2023-05-07T01:36:54;4.55;;;2.42;;
47455;SDS011;33202;48.512;-2.780;2023-05-07T01:39:21;6.80;;;3.10;;
47455;SDS011;33202;48.512;-2.780;2023-05-07T01:41:48;4.88;;;3.28;;
47455;SDS011;33202;48.512;-2.780;2023-05-07T01:44:14;5.60;;;3.60;;
47455;SDS011;33202;48.512;-2.780;2023-05-07T01:46:41;7.20;;;4.13;;
47455;SDS011;33202;48.512;-2.780;2023-05-07T01:49:07;7.93;;;4.50;;
47455;SDS011;33202;48.512;-2.780;2023-05-07T01:51:33;7.53;;;4.40;;
47455;SDS011;33202;48.512;-2.780;2023-05-07T01:54:00;14.97;;;8.40;;
47455;SDS011;33202;48.512;-2.780;2023-05-07T01:56:26;24.95;;;14.35;;
47455;SDS011;33202;48.512;-2.780;2023-05-07T01:58:52;47.20;;;24.83;;
47455;SDS011;33202;48.512;-2.780;2023-05-07T02:01:18;57.85;;;31.90;;
47455;SDS011;33202;48.512;-2.780;2023-05-07T02:03:44;55.83;;;30.58;;
47455;SDS011;33202;48.512;-2.780;2023-05-07T02:06:10;46.35;;;27.00;;
47455;SDS011;33202;48.512;-2.780;2023-05-07T02:08:36;47.75;;;26.05;;
47455;SDS011;33202;48.512;-2.780;2023-05-07T02:11:02;44.75;;;25.50;;
47455;SDS011;33202;48.512;-2.780;2023-05-07T02:13:29;41.63;;;23.43;;
47455;SDS011;33202;48.512;-2.780;2023-05-07T02:15:55;36.05;;;21.33;;
47455;SDS011;33202;48.512;-2.780;2023-05-07T02:18:21;34.25;;;20.60;;
47455;SDS011;33202;48.512;-2.780;2023-05-07T02:20:47;23.65;;;15.75;;
47455;SDS011;33202;48.512;-2.780;2023-05-07T02:23:13;18.80;;;11.25;;
47455;SDS011;33202;48.512;-2.780;2023-05-07T02:25:39;16.00;;;10.25;;
47455;SDS011;33202;48.512;-2.780;2023-05-07T02:28:05;14.50;;;8.82;;
47455;SDS011;33202;48.512;-2.780;2023-05-07T02:30:31;13.07;;;8.30;;
47455;SDS011;33202;48.512;-2.780;2023-05-07T02:32:58;11.52;;;7.15;;
47455;SDS011;33202;48.512;-2.780;2023-05-07T02:35:24;14.35;;;7.40;;
47455;SDS011;33202;48.512;-2.780;2023-05-07T02:37:50;10.23;;;6.45;;
47455;SDS011;33202;48.512;-2.780;2023-05-07T02:40:16;10.02;;;6.35;;
47455;SDS011;33202;48.512;-2.780;2023-05-07T02:42:42;9.75;;;6.03;;
47455;SDS011;33202;48.512;-2.780;2023-05-07T02:45:08;9.48;;;5.82;;
47455;SDS011;33202;48.512;-2.780;2023-05-07T02:47:35;8.57;;;5.60;;
47455;SDS011;33202;48.512;-2.780;2023-05-07T02:50:01;9.02;;;5.88;;
47455;SDS011;33202;48.512;-2.780;2023-05-07T02:52:27;11.68;;;6.35;;
47455;SDS011;33202;48.512;-2.780;2023-05-07T02:54:53;11.65;;;6.78;;
47455;SDS011;33202;48.512;-2.780;2023-05-07T02:57:19;10.10;;;5.57;;
47455;SDS011;33202;48.512;-2.780;2023-05-07T02:59:45;9.20;;;5.32;;
47455;SDS011;33202;48.512;-2.780;2023-05-07T03:02:11;9.23;;;5.68;;
47455;SDS011;33202;48.512;-2.780;2023-05-07T03:04:39;9.18;;;6.00;;
47455;SDS011;33202;48.512;-2.780;2023-05-07T03:07:06;11.13;;;6.68;;
47455;SDS011;33202;48.512;-2.780;2023-05-07T03:09:32;8.90;;;5.45;;
47455;SDS011;33202;48.512;-2.780;2023-05-07T03:11:58;7.65;;;5.13;;
47455;SDS011;33202;48.512;-2.780;2023-05-07T03:14:24;8.57;;;5.43;;
47455;SDS011;33202;48.512;-2.780;2023-05-07T03:16:50;9.13;;;5.50;;
47455;SDS011;33202;48.512;-2.780;2023-05-07T03:19:16;9.60;;;5.43;;
47455;SDS011;33202;48.512;-2.780;2023-05-07T03:21:42;7.80;;;4.35;;
47455;SDS011;33202;48.512;-2.780;2023-05-07T03:24:08;6.70;;;4.25;;
47455;SDS011;33202;48.512;-2.780;2023-05-07T03:26:34;6.93;;;4.47;;
47455;SDS011;33202;48.512;-2.780;2023-05-07T03:29:00;7.13;;;3.97;;
47455;SDS011;33202;48.512;-2.780;2023-05-07T03:31:26;6.43;;;4.03;;
47455;SDS011;33202;48.512;-2.780;2023-05-07T03:33:52;7.28;;;3.97;;
47455;SDS011;33202;48.512;-2.780;2023-05-07T03:36:19;7.38;;;4.05;;
47455;SDS011;33202;48.512;-2.780;2023-05-07T03:38:45;5.68;;;4.15;;
47455;SDS011;33202;48.512;-2.780;2023-05-07T03:41:11;6.68;;;3.97;;
47455;SDS011;33202;48.512;-2.780;2023-05-07T03:43:37;5.72;;;3.65;;
47455;SDS011;33202;48.512;-2.780;2023-05-07T03:46:03;5.18;;;3.40;;
47455;SDS011;33202;48.512;-2.780;2023-05-07T03:48:29;5.20;;;3.50;;
47455;SDS011;33202;48.512;-2.780;2023-05-07T03:50:55;6.05;;;3.70;;
47455;SDS011;33202;48.512;-2.780;2023-05-07T03:53:21;7.38;;;4.93;;
47455;SDS011;33202;48.512;-2.780;2023-05-07T03:55:48;6.45;;;4.55;;
47455;SDS011;33202;48.512;-2.780;2023-05-07T03:58:14;7.68;;;5.43;;
47455;SDS011;33202;48.512;-2.780;2023-05-07T04:00:40;10.27;;;6.38;;
47455;SDS011;33202;48.512;-2.780;2023-05-07T04:03:06;10.60;;;6.63;;
47455;SDS011;33202;48.512;-2.780;2023-05-07T04:05:32;10.45;;;7.10;;
47455;SDS011;33202;48.512;-2.780;2023-05-07T04:07:59;10.15;;;6.95;;
47455;SDS011;33202;48.512;-2.780;2023-05-07T04:10:25;10.77;;;7.60;;
47455;SDS011;33202;48.512;-2.780;2023-05-07T04:12:53;11.02;;;7.68;;
47455;SDS011;33202;48.512;-2.780;2023-05-07T04:15:19;12.65;;;8.65;;
47455;SDS011;33202;48.512;-2.780;2023-05-07T04:17:45;14.95;;;9.07;;
47455;SDS011;33202;48.512;-2.780;2023-05-07T04:20:14;13.07;;;8.45;;
47455;SDS011;33202;48.512;-2.780;2023-05-07T04:22:41;14.70;;;9.18;;
47455;SDS011;33202;48.512;-2.780;2023-05-07T04:25:07;13.30;;;9.55;;
47455;SDS011;33202;48.512;-2.780;2023-05-07T04:27:34;13.00;;;9.27;;
47455;SDS011;33202;48.512;-2.780;2023-05-07T04:30:00;14.60;;;9.27;;
47455;SDS011;33202;48.512;-2.780;2023-05-07T04:32:27;11.00;;;8.30;;
47455;SDS011;33202;48.512;-2.780;2023-05-07T04:34:54;11.55;;;9.02;;
47455;SDS011;33202;48.512;-2.780;2023-05-07T04:37:20;11.20;;;7.72;;
47455;SDS011;33202;48.512;-2.780;2023-05-07T04:39:46;9.25;;;7.30;;
47455;SDS011;33202;48.512;-2.780;2023-05-07T04:42:18;11.82;;;7.97;;
47455;SDS011;33202;48.512;-2.780;2023-05-07T04:44:44;10.30;;;7.72;;
47455;SDS011;33202;48.512;-2.780;2023-05-07T04:47:10;9.55;;;6.78;;
47455;SDS011;33202;48.512;-2.780;2023-05-07T04:49:37;11.05;;;8.38;;
47455;SDS011;33202;48.512;-2.780;2023-05-07T04:52:04;10.95;;;7.90;;
47455;SDS011;33202;48.512;-2.780;2023-05-07T04:54:30;10.88;;;7.70;;
47455;SDS011;33202;48.512;-2.780;2023-05-07T04:56:56;14.18;;;9.10;;
47455;SDS011;33202;48.512;-2.780;2023-05-07T04:59:22;11.52;;;8.15;;
47455;SDS011;33202;48.512;-2.780;2023-05-07T05:01:48;16.33;;;8.52;;
47455;SDS011;33202;48.512;-2.780;2023-05-07T05:04:14;13.43;;;9.52;;
47455;SDS011;33202;48.512;-2.780;2023-05-07T05:06:40;14.10;;;9.18;;
47455;SDS011;33202;48.512;-2.780;2023-05-07T05:09:06;16.77;;;9.35;;
47455;SDS011;33202;48.512;-2.780;2023-05-07T05:11:32;12.10;;;8.73;;
47455;SDS011;33202;48.512;-2.780;2023-05-07T05:13:59;13.30;;;8.93;;
47455;SDS011;33202;48.512;-2.780;2023-05-07T05:16:25;12.02;;;7.97;;
47455;SDS011;33202;48.512;-2.780;2023-05-07T05:18:51;12.45;;;7.93;;
47455;SDS011;33202;48.512;-2.780;2023-05-07T05:21:19;13.88;;;8.02;;
47455;SDS011;33202;48.512;-2.780;2023-05-07T05:23:45;12.05;;;7.43;;
47455;SDS011;33202;48.512;-2.780;2023-05-07T05:26:11;11.68;;;6.70;;
47455;SDS011;33202;48.512;-2.780;2023-05-07T05:28:37;10.30;;;6.10;;
47455;SDS011;33202;48.512;-2.780;2023-05-07T05:31:03;10.48;;;6.22;;
47455;SDS011;33202;48.512;-2.780;2023-05-07T05:33:29;9.75;;;5.43;;
47455;SDS011;33202;48.512;-2.780;2023-05-07T05:35:55;10.98;;;6.70;;
47455;SDS011;33202;48.512;-2.780;2023-05-07T05:38:21;12.18;;;6.25;;
47455;SDS011;33202;48.512;-2.780;2023-05-07T05:40:47;11.35;;;6.45;;
47455;SDS011;33202;48.512;-2.780;2023-05-07T05:43:13;13.50;;;7.65;;
47455;SDS011;33202;48.512;-2.780;2023-05-07T05:45:39;14.00;;;7.15;;
47455;SDS011;33202;48.512;-2.780;2023-05-07T05:48:05;13.35;;;7.13;;
47455;SDS011;33202;48.512;-2.780;2023-05-07T05:50:33;15.30;;;7.40;;
47455;SDS011;33202;48.512;-2.780;2023-05-07T05:53:00;11.50;;;6.32;;
47455;SDS011;33202;48.512;-2.780;2023-05-07T05:55:26;12.70;;;6.18;;
47455;SDS011;33202;48.512;-2.780;2023-05-07T05:57:52;11.57;;;5.93;;
47455;SDS011;33202;48.512;-2.780;2023-05-07T06:00:18;9.93;;;6.10;;
47455;SDS011;33202;48.512;-2.780;2023-05-07T06:02:47;12.27;;;5.93;;
47455;SDS011;33202;48.512;-2.780;2023-05-07T06:05:13;12.43;;;6.35;;
47455;SDS011;33202;48.512;-2.780;2023-05-07T06:07:39;14.35;;;6.70;;
47455;SDS011;33202;48.512;-2.780;2023-05-07T06:10:06;14.07;;;6.93;;
47455;SDS011;33202;48.512;-2.780;2023-05-07T06:12:32;12.27;;;6.50;;
47455;SDS011;33202;48.512;-2.780;2023-05-07T06:14:58;14.30;;;6.15;;
47455;SDS011;33202;48.512;-2.780;2023-05-07T06:17:24;13.48;;;5.82;;
47455;SDS011;33202;48.512;-2.780;2023-05-07T06:19:50;11.32;;;5.70;;
47455;SDS011;33202;48.512;-2.780;2023-05-07T06:22:16;10.23;;;5.67;;
47455;SDS011;33202;48.512;-2.780;2023-05-07T06:24:42;8.13;;;4.97;;
47455;SDS011;33202;48.512;-2.780;2023-05-07T06:27:08;8.82;;;5.35;;
47455;SDS011;33202;48.512;-2.780;2023-05-07T06:29:34;10.82;;;5.45;;
47455;SDS011;33202;48.512;-2.780;2023-05-07T06:32:10;9.35;;;5.10;;
47455;SDS011;33202;48.512;-2.780;2023-05-07T06:34:37;8.45;;;5.45;;
47455;SDS011;33202;48.512;-2.780;2023-05-07T06:37:03;9.48;;;6.03;;
47455;SDS011;33202;48.512;-2.780;2023-05-07T06:39:29;8.52;;;5.60;;
47455;SDS011;33202;48.512;-2.780;2023-05-07T06:41:55;9.27;;;5.53;;
47455;SDS011;33202;48.512;-2.780;2023-05-07T06:44:21;8.18;;;5.45;;
47455;SDS011;33202;48.512;-2.780;2023-05-07T06:46:47;8.88;;;5.28;;
47455;SDS011;33202;48.512;-2.780;2023-05-07T06:49:13;7.75;;;5.00;;
47455;SDS011;33202;48.512;-2.780;2023-05-07T06:51:39;10.00;;;5.57;;
47455;SDS011;33202;48.512;-2.780;2023-05-07T06:54:05;8.98;;;6.15;;
47455;SDS011;33202;48.512;-2.780;2023-05-07T06:56:32;13.98;;;7.47;;
47455;SDS011;33202;48.512;-2.780;2023-05-07T06:58:59;11.40;;;7.50;;
47455;SDS011;33202;48.512;-2.780;2023-05-07T07:01:25;14.05;;;9.13;;
47455;SDS011;33202;48.512;-2.780;2023-05-07T07:03:51;13.38;;;8.43;;
47455;SDS011;33202;48.512;-2.780;2023-05-07T07:06:17;12.73;;;7.55;;
47455;SDS011;33202;48.512;-2.780;2023-05-07T07:08:43;12.88;;;8.27;;
47455;SDS011;33202;48.512;-2.780;2023-05-07T07:11:09;12.90;;;8.30;;
47455;SDS011;33202;48.512;-2.780;2023-05-07T07:13:35;13.23;;;8.07;;
47455;SDS011;33202;48.512;-2.780;2023-05-07T07:16:01;13.73;;;8.32;;
47455;SDS011;33202;48.512;-2.780;2023-05-07T07:18:28;12.63;;;7.78;;
47455;SDS011;33202;48.512;-2.780;2023-05-07T07:20:54;12.75;;;8.32;;
47455;SDS011;33202;48.512;-2.780;2023-05-07T07:23:20;13.30;;;8.23;;
47455;SDS011;33202;48.512;-2.780;2023-05-07T07:25:46;14.27;;;9.75;;
47455;SDS011;33202;48.512;-2.780;2023-05-07T07:28:12;16.25;;;9.30;;
47455;SDS011;33202;48.512;-2.780;2023-05-07T07:30:38;16.67;;;8.95;;
47455;SDS011;33202;48.512;-2.780;2023-05-07T07:33:05;17.00;;;9.33;;
47455;SDS011;33202;48.512;-2.780;2023-05-07T07:35:31;18.58;;;9.25;;
47455;SDS011;33202;48.512;-2.780;2023-05-07T07:37:57;16.03;;;9.27;;
47455;SDS011;33202;48.512;-2.780;2023-05-07T07:40:24;17.25;;;8.38;;
47455;SDS011;33202;48.512;-2.780;2023-05-07T07:42:50;18.95;;;8.20;;
47455;SDS011;33202;48.512;-2.780;2023-05-07T07:45:16;16.52;;;8.23;;
47455;SDS011;33202;48.512;-2.780;2023-05-07T07:47:42;14.50;;;8.15;;
47455;SDS011;33202;48.512;-2.780;2023-05-07T07:50:08;15.43;;;8.43;;
47455;SDS011;33202;48.512;-2.780;2023-05-07T07:52:34;15.45;;;8.50;;
47455;SDS011;33202;48.512;-2.780;2023-05-07T07:55:01;16.70;;;8.65;;
47455;SDS011;33202;48.512;-2.780;2023-05-07T07:57:27;16.42;;;8.93;;
47455;SDS011;33202;48.512;-2.780;2023-05-07T07:59:53;15.95;;;8.98;;
47455;SDS011;33202;48.512;-2.780;2023-05-07T08:02:19;16.35;;;9.13;;
47455;SDS011;33202;48.512;-2.780;2023-05-07T08:04:45;16.45;;;8.43;;
47455;SDS011;33202;48.512;-2.780;2023-05-07T08:07:11;18.00;;;8.65;;
47455;SDS011;33202;48.512;-2.780;2023-05-07T08:09:37;17.85;;;9.18;;
47455;SDS011;33202;48.512;-2.780;2023-05-07T08:12:04;15.25;;;8.57;;
47455;SDS011;33202;48.512;-2.780;2023-05-07T08:14:30;15.73;;;8.30;;
47455;SDS011;33202;48.512;-2.780;2023-05-07T08:16:56;17.75;;;8.88;;
47455;SDS011;33202;48.512;-2.780;2023-05-07T08:19:22;14.55;;;8.60;;
47455;SDS011;33202;48.512;-2.780;2023-05-07T08:21:48;18.52;;;9.55;;
47455;SDS011;33202;48.512;-2.780;2023-05-07T08:24:14;20.00;;;9.88;;
47455;SDS011;33202;48.512;-2.780;2023-05-07T08:26:41;15.88;;;8.88;;
47455;SDS011;33202;48.512;-2.780;2023-05-07T08:29:07;18.58;;;9.05;;
47455;SDS011;33202;48.512;-2.780;2023-05-07T08:31:33;15.13;;;8.18;;
47455;SDS011;33202;48.512;-2.780;2023-05-07T08:33:59;16.25;;;7.93;;
47455;SDS011;33202;48.512;-2.780;2023-05-07T08:36:25;17.27;;;8.47;;
47455;SDS011;33202;48.512;-2.780;2023-05-07T08:38:52;17.90;;;9.25;;
47455;SDS011;33202;48.512;-2.780;2023-05-07T08:41:18;16.63;;;8.02;;
47455;SDS011;33202;48.512;-2.780;2023-05-07T08:43:46;13.27;;;6.85;;
47455;SDS011;33202;48.512;-2.780;2023-05-07T08:46:13;17.25;;;7.13;;
47455;SDS011;33202;48.512;-2.780;2023-05-07T08:48:41;16.83;;;6.82;;
47455;SDS011;33202;48.512;-2.780;2023-05-07T08:51:08;14.02;;;6.22;;
47455;SDS011;33202;48.512;-2.780;2023-05-07T08:53:34;12.60;;;6.07;;
47455;SDS011;33202;48.512;-2.780;2023-05-07T08:56:01;17.05;;;5.97;;
47455;SDS011;33202;48.512;-2.780;2023-05-07T08:58:28;18.10;;;7.10;;
47455;SDS011;33202;48.512;-2.780;2023-05-07T09:00:54;13.27;;;5.63;;
47455;SDS011;33202;48.512;-2.780;2023-05-07T09:03:20;10.98;;;5.25;;
47455;SDS011;33202;48.512;-2.780;2023-05-07T09:05:46;19.33;;;6.10;;
47455;SDS011;33202;48.512;-2.780;2023-05-07T09:08:14;13.23;;;6.30;;
47455;SDS011;33202;48.512;-2.780;2023-05-07T09:10:40;11.98;;;5.38;;
47455;SDS011;33202;48.512;-2.780;2023-05-07T09:13:06;12.57;;;5.60;;
47455;SDS011;33202;48.512;-2.780;2023-05-07T09:15:32;14.27;;;5.75;;
47455;SDS011;33202;48.512;-2.780;2023-05-07T09:18:01;15.88;;;6.25;;
47455;SDS011;33202;48.512;-2.780;2023-05-07T09:20:27;14.60;;;5.75;;
47455;SDS011;33202;48.512;-2.780;2023-05-07T09:22:54;17.40;;;7.15;;
47455;SDS011;33202;48.512;-2.780;2023-05-07T09:25:27;18.00;;;7.18;;
47455;SDS011;33202;48.512;-2.780;2023-05-07T09:27:54;18.25;;;7.03;;
47455;SDS011;33202;48.512;-2.780;2023-05-07T09:30:20;11.02;;;6.00;;
47455;SDS011;33202;48.512;-2.780;2023-05-07T09:32:46;14.93;;;6.43;;
47455;SDS011;33202;48.512;-2.780;2023-05-07T09:35:15;13.13;;;5.38;;
47455;SDS011;33202;48.512;-2.780;2023-05-07T09:37:42;16.27;;;6.07;;
47455;SDS011;33202;48.512;-2.780;2023-05-07T09:40:08;13.07;;;5.22;;
47455;SDS011;33202;48.512;-2.780;2023-05-07T09:42:45;12.07;;;5.03;;
47455;SDS011;33202;48.512;-2.780;2023-05-07T09:45:12;12.40;;;5.30;;
47455;SDS011;33202;48.512;-2.780;2023-05-07T09:47:38;14.35;;;4.95;;
47455;SDS011;33202;48.512;-2.780;2023-05-07T09:50:05;12.63;;;4.85;;
47455;SDS011;33202;48.512;-2.780;2023-05-07T09:52:32;12.93;;;4.97;;
47455;SDS011;33202;48.512;-2.780;2023-05-07T09:55:00;20.23;;;5.97;;
47455;SDS011;33202;48.512;-2.780;2023-05-07T09:57:27;16.77;;;5.40;;
47455;SDS011;33202;48.512;-2.780;2023-05-07T09:59:53;13.65;;;6.22;;
47455;SDS011;33202;48.512;-2.780;2023-05-07T10:02:19;18.35;;;5.30;;
47455;SDS011;33202;48.512;-2.780;2023-05-07T10:04:46;12.63;;;5.20;;
47455;SDS011;33202;48.512;-2.780;2023-05-07T10:07:13;15.82;;;5.00;;
47455;SDS011;33202;48.512;-2.780;2023-05-07T10:09:39;14.85;;;5.85;;
47455;SDS011;33202;48.512;-2.780;2023-05-07T10:12:07;13.85;;;5.03;;
47455;SDS011;33202;48.512;-2.780;2023-05-07T10:14:33;12.65;;;5.50;;
47455;SDS011;33202;48.512;-2.780;2023-05-07T10:16:59;14.73;;;5.30;;
47455;SDS011;33202;48.512;-2.780;2023-05-07T10:19:26;17.55;;;5.35;;
47455;SDS011;33202;48.512;-2.780;2023-05-07T10:21:56;14.40;;;5.45;;
47455;SDS011;33202;48.512;-2.780;2023-05-07T10:24:26;10.82;;;4.60;;
47455;SDS011;33202;48.512;-2.780;2023-05-07T10:26:53;12.45;;;5.38;;
47455;SDS011;33202;48.512;-2.780;2023-05-07T10:32:09;12.90;;;4.90;;
47455;SDS011;33202;48.512;-2.780;2023-05-07T10:34:40;10.55;;;4.90;;
47455;SDS011;33202;48.512;-2.780;2023-05-07T10:37:07;11.65;;;4.97;;
47455;SDS011;33202;48.512;-2.780;2023-05-07T10:39:34;12.38;;;4.43;;
47455;SDS011;33202;48.512;-2.780;2023-05-07T10:42:07;12.32;;;4.25;;
47455;SDS011;33202;48.512;-2.780;2023-05-07T10:44:33;10.32;;;4.10;;
47455;SDS011;33202;48.512;-2.780;2023-05-07T10:47:10;8.80;;;4.15;;
47455;SDS011;33202;48.512;-2.780;2023-05-07T10:49:36;10.80;;;3.90;;
47455;SDS011;33202;48.512;-2.780;2023-05-07T10:52:20;11.93;;;5.20;;
47455;SDS011;33202;48.512;-2.780;2023-05-07T10:54:46;11.20;;;4.03;;
47455;SDS011;33202;48.512;-2.780;2023-05-07T10:59:54;9.90;;;4.07;;
47455;SDS011;33202;48.512;-2.780;2023-05-07T11:02:20;8.55;;;4.03;;
47455;SDS011;33202;48.512;-2.780;2023-05-07T11:04:50;7.00;;;3.60;;
47455;SDS011;33202;48.512;-2.780;2023-05-07T11:07:32;12.63;;;3.97;;
47455;SDS011;33202;48.512;-2.780;2023-05-07T11:09:59;9.45;;;4.07;;
47455;SDS011;33202;48.512;-2.780;2023-05-07T11:17:35;9.35;;;4.38;;
47455;SDS011;33202;48.512;-2.780;2023-05-07T11:20:17;12.10;;;4.30;;
47455;SDS011;33202;48.512;-2.780;2023-05-07T11:22:43;7.50;;;3.92;;
47455;SDS011;33202;48.512;-2.780;2023-05-07T11:25:09;9.35;;;4.00;;
47455;SDS011;33202;48.512;-2.780;2023-05-07T11:27:36;13.05;;;5.00;;
47455;SDS011;33202;48.512;-2.780;2023-05-07T11:30:02;9.32;;;4.85;;
47455;SDS011;33202;48.512;-2.780;2023-05-07T11:32:28;10.32;;;5.00;;
47455;SDS011;33202;48.512;-2.780;2023-05-07T11:34:55;10.70;;;4.97;;
47455;SDS011;33202;48.512;-2.780;2023-05-07T11:37:21;9.87;;;4.93;;
47455;SDS011;33202;48.512;-2.780;2023-05-07T11:39:48;17.02;;;5.30;;
47455;SDS011;33202;48.512;-2.780;2023-05-07T11:44:51;9.20;;;5.03;;
47455;SDS011;33202;48.512;-2.780;2023-05-07T11:47:18;14.20;;;6.10;;
47455;SDS011;33202;48.512;-2.780;2023-05-07T11:49:48;12.80;;;6.07;;
47455;SDS011;33202;48.512;-2.780;2023-05-07T11:52:14;11.73;;;5.28;;
47455;SDS011;33202;48.512;-2.780;2023-05-07T11:54:41;15.77;;;5.57;;
47455;SDS011;33202;48.512;-2.780;2023-05-07T11:57:07;11.95;;;5.85;;
47455;SDS011;33202;48.512;-2.780;2023-05-07T11:59:39;12.07;;;5.30;;
47455;SDS011;33202;48.512;-2.780;2023-05-07T12:02:06;15.32;;;6.25;;
47455;SDS011;33202;48.512;-2.780;2023-05-07T12:04:32;12.13;;;5.40;;
47455;SDS011;33202;48.512;-2.780;2023-05-07T12:06:58;16.10;;;6.18;;
47455;SDS011;33202;48.512;-2.780;2023-05-07T12:09:25;11.40;;;5.43;;
47455;SDS011;33202;48.512;-2.780;2023-05-07T12:11:51;15.52;;;5.10;;
47455;SDS011;33202;48.512;-2.780;2023-05-07T12:14:17;14.73;;;5.63;;
47455;SDS011;33202;48.512;-2.780;2023-05-07T12:16:44;15.18;;;6.53;;
47455;SDS011;33202;48.512;-2.780;2023-05-07T12:19:10;16.83;;;5.63;;
47455;SDS011;33202;48.512;-2.780;2023-05-07T12:21:40;13.30;;;5.93;;
47455;SDS011;33202;48.512;-2.780;2023-05-07T12:24:06;18.77;;;5.72;;
47455;SDS011;33202;48.512;-2.780;2023-05-07T12:26:37;14.05;;;5.40;;
47455;SDS011;33202;48.512;-2.780;2023-05-07T12:29:03;13.18;;;5.45;;
47455;SDS011;33202;48.512;-2.780;2023-05-07T12:31:29;9.52;;;5.45;;
47455;SDS011;33202;48.512;-2.780;2023-05-07T12:33:56;13.07;;;5.68;;
47455;SDS011;33202;48.512;-2.780;2023-05-07T12:36:22;7.57;;;4.70;;
47455;SDS011;33202;48.512;-2.780;2023-05-07T12:38:49;10.57;;;4.80;;
47455;SDS011;33202;48.512;-2.780;2023-05-07T12:41:15;10.20;;;5.00;;
47455;SDS011;33202;48.512;-2.780;2023-05-07T12:43:44;11.02;;;4.90;;
47455;SDS011;33202;48.512;-2.780;2023-05-07T12:46:11;11.13;;;5.20;;
47455;SDS011;33202;48.512;-2.780;2023-05-07T12:48:45;13.15;;;5.15;;
47455;SDS011;33202;48.512;-2.780;2023-05-07T12:51:11;13.07;;;5.03;;
47455;SDS011;33202;48.512;-2.780;2023-05-07T12:56:04;8.77;;;4.25;;
47455;SDS011;33202;48.512;-2.780;2023-05-07T12:58:33;13.27;;;4.40;;
47455;SDS011;33202;48.512;-2.780;2023-05-07T13:01:00;12.05;;;4.47;;
47455;SDS011;33202;48.512;-2.780;2023-05-07T13:03:28;9.25;;;4.32;;
47455;SDS011;33202;48.512;-2.780;2023-05-07T13:08:24;10.57;;;4.18;;
47455;SDS011;33202;48.512;-2.780;2023-05-07T13:10:50;11.25;;;4.15;;
47455;SDS011;33202;48.512;-2.780;2023-05-07T13:13:17;7.67;;;4.13;;
47455;SDS011;33202;48.512;-2.780;2023-05-07T13:15:43;9.52;;;4.25;;
47455;SDS011;33202;48.512;-2.780;2023-05-07T13:18:09;10.73;;;4.72;;
47455;SDS011;33202;48.512;-2.780;2023-05-07T13:20:36;12.52;;;4.63;;
47455;SDS011;33202;48.512;-2.780;2023-05-07T13:23:02;10.50;;;4.75;;
47455;SDS011;33202;48.512;-2.780;2023-05-07T13:27:56;13.77;;;4.78;;
47455;SDS011;33202;48.512;-2.780;2023-05-07T13:30:22;12.43;;;4.65;;
47455;SDS011;33202;48.512;-2.780;2023-05-07T13:32:48;12.45;;;4.57;;
47455;SDS011;33202;48.512;-2.780;2023-05-07T13:35:16;12.18;;;4.07;;
47455;SDS011;33202;48.512;-2.780;2023-05-07T13:40:08;11.90;;;4.00;;
47455;SDS011;33202;48.512;-2.780;2023-05-07T13:42:34;17.40;;;4.57;;
47455;SDS011;33202;48.512;-2.780;2023-05-07T13:45:00;14.57;;;4.50;;
47455;SDS011;33202;48.512;-2.780;2023-05-07T13:47:30;12.93;;;3.97;;
47455;SDS011;33202;48.512;-2.780;2023-05-07T13:49:56;15.27;;;6.03;;
47455;SDS011;33202;48.512;-2.780;2023-05-07T13:52:22;12.88;;;4.50;;
47455;SDS011;33202;48.512;-2.780;2023-05-07T13:54:48;10.25;;;4.60;;
47455;SDS011;33202;48.512;-2.780;2023-05-07T13:57:14;11.25;;;3.90;;
47455;SDS011;33202;48.512;-2.780;2023-05-07T13:59:40;11.63;;;4.30;;
47455;SDS011;33202;48.512;-2.780;2023-05-07T14:02:06;10.30;;;4.50;;
47455;SDS011;33202;48.512;-2.780;2023-05-07T14:04:34;10.90;;;4.35;;
47455;SDS011;33202;48.512;-2.780;2023-05-07T14:07:00;11.50;;;4.35;;
47455;SDS011;33202;48.512;-2.780;2023-05-07T14:09:26;15.85;;;5.63;;
47455;SDS011;33202;48.512;-2.780;2023-05-07T14:11:52;11.60;;;4.90;;
47455;SDS011;33202;48.512;-2.780;2023-05-07T14:14:18;10.18;;;4.63;;
47455;SDS011;33202;48.512;-2.780;2023-05-07T14:16:44;9.50;;;5.13;;
47455;SDS011;33202;48.512;-2.780;2023-05-07T14:19:13;10.33;;;4.37;;
47455;SDS011;33202;48.512;-2.780;2023-05-07T14:21:40;15.52;;;5.03;;
47455;SDS011;33202;48.512;-2.780;2023-05-07T14:24:06;17.33;;;5.35;;
47455;SDS011;33202;48.512;-2.780;2023-05-07T14:26:33;15.63;;;4.97;;
47455;SDS011;33202;48.512;-2.780;2023-05-07T14:28:59;12.10;;;4.53;;
47455;SDS011;33202;48.512;-2.780;2023-05-07T14:31:25;14.73;;;4.35;;
47455;SDS011;33202;48.512;-2.780;2023-05-07T14:33:51;13.23;;;4.85;;
47455;SDS011;33202;48.512;-2.780;2023-05-07T14:36:18;11.93;;;4.53;;
47455;SDS011;33202;48.512;-2.780;2023-05-07T14:38:50;17.98;;;5.10;;
47455;SDS011;33202;48.512;-2.780;2023-05-07T14:41:16;12.35;;;5.03;;
47455;SDS011;33202;48.512;-2.780;2023-05-07T14:43:42;13.05;;;5.03;;
47455;SDS011;33202;48.512;-2.780;2023-05-07T14:46:14;13.57;;;4.93;;
47455;SDS011;33202;48.512;-2.780;2023-05-07T14:48:40;11.43;;;4.93;;